createdAt,value
2022-09-15T00:10:01.354Z,88.06
2022-09-15T00:20:06.144Z,88.42
2022-09-15T00:30:08.459Z,88.08
2022-09-15T00:40:10.603Z,87.64
2022-09-15T00:50:16.387Z,87.36
2022-09-15T01:00:21.015Z,86.86
2022-09-15T01:10:27.119Z,87.85
2022-09-15T01:20:53.359Z,86.91
2022-09-15T01:31:10.981Z,87.47
2022-09-15T01:41:27.237Z,86.84
2022-09-15T01:51:31.779Z,87.02
2022-09-15T02:02:10.915Z,87.00
2022-09-15T02:12:20.213Z,87.75
2022-09-15T02:22:29.564Z,88.23
2022-09-15T02:32:34.122Z,87.39
2022-09-15T02:42:36.348Z,88.23
2022-09-15T02:52:41.571Z,88.75
2022-09-15T03:02:46.600Z,89.02
2022-09-15T03:12:51.605Z,87.58
2022-09-15T03:22:56.152Z,88.57
2022-09-15T03:32:57.865Z,88.37
2022-09-15T03:42:59.859Z,87.17
2022-09-15T03:53:01.988Z,87.75
2022-09-15T04:03:04.142Z,87.05
2022-09-15T04:13:05.888Z,86.21
2022-09-15T04:23:07.601Z,85.55
2022-09-15T04:33:09.302Z,85.03
2022-09-15T04:43:10.954Z,84.99
2022-09-15T04:53:12.802Z,84.44
2022-09-15T05:03:14.512Z,85.63
2022-09-15T05:13:16.324Z,85.59
2022-09-15T05:23:18.424Z,85.50
2022-09-15T05:33:21.822Z,85.82
2022-09-15T05:43:23.596Z,84.07
2022-09-15T05:53:26.064Z,86.40
2022-09-15T06:03:30.971Z,85.43
2022-09-15T06:13:33.207Z,90.33
2022-09-15T06:23:35.372Z,87.71
2022-09-15T06:33:37.263Z,86.16
2022-09-15T06:43:39.618Z,85.80
2022-09-15T06:53:41.424Z,85.63
2022-09-15T07:03:44.164Z,85.50
2022-09-15T07:13:48.449Z,83.84
2022-09-15T07:23:50.443Z,82.38
2022-09-15T07:33:52.104Z,83.60
2022-09-15T07:43:56.422Z,81.58
2022-09-15T07:53:58.564Z,81.18
2022-09-15T08:04:00.431Z,80.46
2022-09-15T08:14:03.305Z,80.37
2022-09-15T08:24:05.113Z,80.19
2022-09-15T08:34:07.127Z,80.63
2022-09-15T08:44:42.957Z,82.61
2022-09-15T08:54:44.906Z,80.74
2022-09-15T09:04:52.523Z,80.83
2022-09-15T09:14:54.286Z,81.88
2022-09-15T09:24:59.363Z,80.53
2022-09-15T09:35:29.785Z,81.70
2022-09-15T09:45:31.497Z,77.51
2022-09-15T09:55:33.264Z,78.35
2022-09-15T10:05:35.267Z,77.13
2022-09-15T10:15:40.592Z,75.18
2022-09-15T10:25:58.680Z,74.31
2022-09-15T10:36:05.872Z,71.16
2022-09-15T10:46:13.867Z,71.04
2022-09-15T10:56:21.975Z,70.87
2022-09-15T11:06:32.547Z,70.63
2022-09-15T11:16:53.295Z,71.16
2022-09-15T11:27:17.109Z,67.20
2022-09-15T11:37:24.105Z,67.15
2022-09-15T11:47:25.903Z,66.32
2022-09-15T11:57:36.572Z,64.83
2022-09-15T12:07:50.170Z,63.87
2022-09-15T12:18:37.054Z,64.96
2022-09-15T12:29:04.775Z,63.16
2022-09-15T12:39:24.293Z,61.24
2022-09-15T12:49:36.636Z,61.72
2022-09-15T12:59:38.386Z,62.35
2022-09-15T13:09:57.252Z,61.01
2022-09-15T13:20:07.321Z,57.75
2022-09-15T13:30:24.190Z,57.37
2022-09-15T13:40:44.402Z,56.36
2022-09-15T13:51:13.174Z,57.92
2022-09-15T14:01:17.198Z,59.25
2022-09-15T14:11:26.251Z,59.14
2022-09-15T14:21:33.600Z,59.73
2022-09-15T14:31:41.198Z,60.74
2022-09-15T14:41:42.941Z,59.84
2022-09-15T14:51:46.787Z,57.70
2022-09-15T15:02:19.737Z,60.23
2022-09-15T15:12:29.187Z,61.58
2022-09-15T15:22:30.965Z,64.01
2022-09-15T15:32:34.258Z,69.01
2022-09-15T15:42:36.008Z,67.36
2022-09-15T15:52:37.910Z,68.54
2022-09-15T16:02:39.796Z,68.33
2022-09-15T16:12:41.452Z,67.70
2022-09-15T16:22:43.955Z,66.82
2022-09-15T16:32:45.647Z,67.08
2022-09-15T16:42:48.372Z,67.09
2022-09-15T16:52:50.603Z,69.32
2022-09-15T17:02:52.337Z,69.56
2022-09-15T17:12:54.459Z,69.35
2022-09-15T17:22:57.380Z,68.95
2022-09-15T17:33:06.644Z,68.47
2022-09-15T17:43:16.634Z,67.70
2022-09-15T17:53:28.449Z,66.09
2022-09-15T18:03:34.824Z,66.43
2022-09-15T18:13:37.896Z,66.25
2022-09-15T18:23:42.351Z,65.91
2022-09-15T18:33:45.058Z,65.38
2022-09-15T18:43:49.388Z,65.97
2022-09-15T18:53:54.297Z,65.63
2022-09-15T19:03:57.724Z,65.23
2022-09-15T19:14:00.323Z,64.69
2022-09-15T19:24:02.290Z,65.48
2022-09-15T19:34:04.749Z,66.21
2022-09-15T19:44:09.513Z,66.16
2022-09-15T19:54:12.557Z,66.28
2022-09-15T20:04:15.173Z,65.71
2022-09-15T20:14:16.871Z,66.48
2022-09-15T20:24:20.248Z,65.08
2022-09-15T20:34:22.669Z,64.77
2022-09-15T20:44:24.778Z,63.69
2022-09-15T20:54:26.506Z,63.46
2022-09-15T21:04:28.235Z,63.56
2022-09-15T21:14:30.650Z,64.05
2022-09-15T21:24:32.460Z,63.94
2022-09-15T21:34:34.356Z,64.37
2022-09-15T21:44:36.346Z,63.91
2022-09-15T21:54:38.830Z,63.26
2022-09-15T22:04:41.081Z,64.26
2022-09-15T22:14:42.793Z,64.19
2022-09-15T22:24:48.279Z,64.19
2022-09-15T22:34:50.297Z,64.47
2022-09-15T22:44:52.250Z,65.34
2022-09-15T22:54:53.945Z,65.15
2022-09-15T23:04:55.696Z,66.04
2022-09-15T23:14:57.593Z,65.91
2022-09-15T23:24:59.342Z,66.11
2022-09-15T23:35:00.934Z,66.02
2022-09-15T23:45:02.737Z,66.34
2022-09-15T23:55:04.898Z,66.28
